createdAt,value
2023-01-26T00:02:20.662Z,26.43
2023-01-26T00:07:23.585Z,25.60
2023-01-26T00:12:27.790Z,27.70
2023-01-26T00:17:30.712Z,26.97
2023-01-26T00:22:33.650Z,25.50
2023-01-26T00:27:37.934Z,25.93
2023-01-26T00:32:40.901Z,23.80
2023-01-26T00:37:45.533Z,24.53
2023-01-26T00:42:54.416Z,24.90
2023-01-26T00:47:57.364Z,28.57
2023-01-26T00:53:00.348Z,26.30
2023-01-26T00:58:06.686Z,26.67
2023-01-26T01:03:09.620Z,27.30
2023-01-26T01:08:12.564Z,26.47
2023-01-26T01:13:16.844Z,27.80
2023-01-26T01:18:19.763Z,25.93
2023-01-26T01:23:22.829Z,24.23
2023-01-26T01:28:27.132Z,24.10
2023-01-26T01:33:30.064Z,22.20
2023-01-26T01:38:34.205Z,24.30
2023-01-26T01:43:39.214Z,24.10
2023-01-26T01:48:50.367Z,22.27
2023-01-26T01:53:54.623Z,22.93
2023-01-26T01:59:00.943Z,24.73
2023-01-26T02:04:07.109Z,22.30
2023-01-26T02:09:30.821Z,23.10
2023-01-26T02:14:35.188Z,24.30
2023-01-26T02:19:47.212Z,23.00
2023-01-26T02:24:51.797Z,23.97
2023-01-26T02:29:58.456Z,24.00
2023-01-26T02:35:02.614Z,24.87
2023-01-26T02:40:14.226Z,23.80
2023-01-26T02:45:18.771Z,21.90
2023-01-26T02:50:22.761Z,24.50
2023-01-26T02:55:28.711Z,24.37
2023-01-26T03:00:37.189Z,25.60
2023-01-26T03:05:40.535Z,24.40
2023-01-26T03:10:43.673Z,25.10
2023-01-26T03:15:52.693Z,26.83
2023-01-26T03:21:14.743Z,26.43
2023-01-26T03:26:35.770Z,23.13
2023-01-26T03:31:40.336Z,24.70
2023-01-26T03:36:43.507Z,21.60
2023-01-26T03:42:07.276Z,26.60
2023-01-26T03:47:29.397Z,23.73
2023-01-26T03:52:50.758Z,22.57
2023-01-26T03:57:53.911Z,24.07
2023-01-26T04:03:15.926Z,24.20
2023-01-26T04:08:24.739Z,23.37
2023-01-26T04:13:50.031Z,22.73
2023-01-26T04:19:18.009Z,23.47
2023-01-26T04:24:23.015Z,23.17
2023-01-26T04:29:30.655Z,22.00
2023-01-26T04:34:36.334Z,21.93
2023-01-26T04:39:46.968Z,19.60
2023-01-26T04:44:50.111Z,19.93
2023-01-26T04:49:55.459Z,19.83
2023-01-26T04:55:00.129Z,22.67
2023-01-26T05:00:04.857Z,20.60
2023-01-26T05:05:10.800Z,22.17
2023-01-26T05:10:15.759Z,21.57
2023-01-26T05:15:28.897Z,19.70
2023-01-26T05:20:46.900Z,20.10
2023-01-26T05:25:52.484Z,18.97
2023-01-26T05:30:56.300Z,24.17
2023-01-26T05:36:05.806Z,18.30
2023-01-26T05:41:09.359Z,16.10
2023-01-26T05:46:27.330Z,16.30
2023-01-26T05:51:31.737Z,17.33
2023-01-26T05:56:35.402Z,17.57
2023-01-26T06:01:40.955Z,19.57
2023-01-26T06:06:46.425Z,20.10
2023-01-26T06:11:58.487Z,19.37
2023-01-26T06:17:08.910Z,16.50
2023-01-26T06:22:14.946Z,20.00
2023-01-26T06:27:21.930Z,22.60
2023-01-26T06:32:28.108Z,23.83
2023-01-26T06:37:33.567Z,21.23
2023-01-26T06:42:36.601Z,22.97
2023-01-26T06:47:39.680Z,22.90
2023-01-26T06:52:48.035Z,21.70
2023-01-26T06:58:14.216Z,20.07
2023-01-26T07:03:34.171Z,22.73
2023-01-26T07:08:38.542Z,22.13
2023-01-26T07:13:41.546Z,18.80
2023-01-26T07:18:44.853Z,21.57
2023-01-26T07:23:49.154Z,24.20
2023-01-26T07:28:52.088Z,24.73
2023-01-26T07:33:55.014Z,26.30
2023-01-26T07:38:59.469Z,22.40
2023-01-26T07:44:02.511Z,25.60
2023-01-26T07:49:05.472Z,23.33
2023-01-26T07:54:12.833Z,20.60
2023-01-26T07:59:15.725Z,20.73
2023-01-26T08:04:19.193Z,21.50
2023-01-26T08:09:24.804Z,21.43
2023-01-26T08:14:38.166Z,22.07
2023-01-26T08:19:48.161Z,23.47
2023-01-26T08:24:52.481Z,23.33
2023-01-26T08:29:55.580Z,22.20
2023-01-26T08:34:58.515Z,23.53
2023-01-26T08:40:02.850Z,24.00
2023-01-26T08:45:06.430Z,22.80
2023-01-26T08:50:10.495Z,23.03
2023-01-26T08:55:14.985Z,22.27
2023-01-26T09:00:18.590Z,23.00
2023-01-26T09:05:21.465Z,23.50
2023-01-26T09:10:26.098Z,23.77
2023-01-26T09:15:29.258Z,22.70
2023-01-26T09:20:32.190Z,25.27
2023-01-26T09:25:38.736Z,21.47
2023-01-26T09:30:41.698Z,21.17
2023-01-26T09:35:44.719Z,21.20
2023-01-26T09:41:02.124Z,21.20
2023-01-26T09:46:18.594Z,19.50
2023-01-26T09:51:26.900Z,20.50
2023-01-26T09:56:34.020Z,21.00
2023-01-26T10:01:43.448Z,22.10
2023-01-26T10:06:47.828Z,19.13
2023-01-26T10:12:25.561Z,24.13
2023-01-26T10:17:33.266Z,19.90
2023-01-26T10:22:43.524Z,20.63
2023-01-26T10:27:47.896Z,19.17
2023-01-26T10:32:53.735Z,21.20
2023-01-26T10:37:58.017Z,19.63
2023-01-26T10:43:02.287Z,17.13
2023-01-26T10:48:07.917Z,19.80
2023-01-26T10:53:19.006Z,19.90
2023-01-26T10:58:45.323Z,19.87
2023-01-26T11:04:04.615Z,21.67
2023-01-26T11:09:12.955Z,21.03
2023-01-26T11:14:19.185Z,20.60
2023-01-26T11:19:39.536Z,19.73
2023-01-26T11:24:48.651Z,21.23
2023-01-26T11:30:13.600Z,21.50
2023-01-26T11:35:29.447Z,20.27
2023-01-26T11:40:41.871Z,21.30
2023-01-26T11:46:04.065Z,19.47
2023-01-26T11:51:16.733Z,20.10
2023-01-26T11:56:31.995Z,18.23
2023-01-26T12:01:41.334Z,17.97
2023-01-26T12:06:47.925Z,19.50
2023-01-26T12:11:57.090Z,17.40
2023-01-26T12:17:21.481Z,19.00
2023-01-26T12:22:31.616Z,16.70
2023-01-26T12:27:43.566Z,15.00
2023-01-26T12:32:47.989Z,16.57
2023-01-26T12:38:16.726Z,16.67
2023-01-26T12:43:35.082Z,13.90
2023-01-26T12:48:44.551Z,14.33
2023-01-26T12:53:55.313Z,13.03
2023-01-26T12:59:00.911Z,16.20
2023-01-26T13:04:10.232Z,14.70
2023-01-26T13:09:23.605Z,13.67
2023-01-26T13:14:35.901Z,14.33
2023-01-26T13:19:53.478Z,12.67
2023-01-26T13:24:58.916Z,11.97
2023-01-26T13:30:02.151Z,12.80
2023-01-26T13:35:14.091Z,12.73
2023-01-26T13:40:21.088Z,11.83
2023-01-26T13:45:32.137Z,11.43
2023-01-26T13:50:38.727Z,12.43
2023-01-26T13:55:42.346Z,11.13
2023-01-26T14:00:59.237Z,11.40
2023-01-26T14:06:08.990Z,13.13
2023-01-26T14:11:19.915Z,11.97
2023-01-26T14:16:26.543Z,11.03
2023-01-26T14:21:32.484Z,12.30
2023-01-26T14:26:35.395Z,11.40
2023-01-26T14:31:38.352Z,12.60
2023-01-26T14:36:42.634Z,13.27
2023-01-26T14:41:46.137Z,12.70
2023-01-26T14:46:56.643Z,12.43
2023-01-26T14:52:01.118Z,12.57
2023-01-26T14:57:09.656Z,12.90
2023-01-26T15:02:17.485Z,13.00
2023-01-26T15:07:37.660Z,13.00
2023-01-26T15:12:41.241Z,11.70
2023-01-26T15:17:44.528Z,13.30
2023-01-26T15:22:52.332Z,13.10
2023-01-26T15:27:58.897Z,11.03
2023-01-26T15:33:02.890Z,12.73
2023-01-26T15:38:11.552Z,13.93
2023-01-26T15:43:15.271Z,14.73
2023-01-26T15:48:18.380Z,13.67
2023-01-26T15:53:23.965Z,15.13
2023-01-26T15:58:28.959Z,14.10
2023-01-26T16:03:31.918Z,13.20
2023-01-26T16:08:36.244Z,15.13
2023-01-26T16:13:40.167Z,13.57
2023-01-26T16:18:43.413Z,15.37
2023-01-26T16:23:48.273Z,13.27
2023-01-26T16:28:51.279Z,14.50
2023-01-26T16:33:54.204Z,14.10
2023-01-26T16:38:58.467Z,14.50
2023-01-26T16:44:02.834Z,15.67
2023-01-26T16:49:05.758Z,13.47
2023-01-26T16:54:10.082Z,15.27
2023-01-26T16:59:13.711Z,13.83
2023-01-26T17:04:16.649Z,17.70
2023-01-26T17:09:23.798Z,16.63
2023-01-26T17:14:26.734Z,21.53
2023-01-26T17:19:29.620Z,18.73
2023-01-26T17:24:34.036Z,19.57
2023-01-26T17:29:37.030Z,24.17
2023-01-26T17:34:40.029Z,18.33
2023-01-26T17:39:44.287Z,16.37
2023-01-26T17:44:47.188Z,20.37
2023-01-26T17:49:50.078Z,21.80
2023-01-26T17:54:54.427Z,18.70
2023-01-26T17:59:57.363Z,17.17
2023-01-26T18:05:00.372Z,14.80
2023-01-26T18:10:05.492Z,15.50
2023-01-26T18:15:09.135Z,15.17
2023-01-26T18:20:15.041Z,14.93
2023-01-26T18:25:21.358Z,14.77
2023-01-26T18:30:24.280Z,12.73
2023-01-26T18:35:27.200Z,13.57
2023-01-26T18:40:31.877Z,12.57
2023-01-26T18:45:34.781Z,13.70
2023-01-26T18:50:38.423Z,18.20
2023-01-26T18:55:42.652Z,13.63
2023-01-26T19:00:45.879Z,14.83
2023-01-26T19:05:48.796Z,12.50
2023-01-26T19:10:53.371Z,12.53
2023-01-26T19:15:56.574Z,12.77
2023-01-26T19:21:00.713Z,13.10
2023-01-26T19:26:10.438Z,12.43
2023-01-26T19:31:14.026Z,15.53
2023-01-26T19:36:16.958Z,15.50
2023-01-26T19:41:22.475Z,14.37
2023-01-26T19:46:25.674Z,14.43
2023-01-26T19:51:29.328Z,13.30
2023-01-26T19:56:36.816Z,13.77
2023-01-26T20:01:40.016Z,16.00
2023-01-26T20:06:43.053Z,15.43
2023-01-26T20:11:47.381Z,14.70
2023-01-26T20:16:50.357Z,15.87
2023-01-26T20:21:53.266Z,15.40
2023-01-26T20:26:57.731Z,15.77
2023-01-26T20:32:00.673Z,15.10
2023-01-26T20:37:04.881Z,15.20
2023-01-26T20:42:10.856Z,15.03
2023-01-26T20:47:13.753Z,16.27
2023-01-26T20:52:16.697Z,17.60
2023-01-26T20:57:20.987Z,17.20
2023-01-26T21:02:24.029Z,18.10
2023-01-26T21:07:28.204Z,16.90
2023-01-26T21:12:34.051Z,18.10
2023-01-26T21:17:36.955Z,15.90
2023-01-26T21:22:39.851Z,15.60
2023-01-26T21:27:44.167Z,16.37
2023-01-26T21:32:47.104Z,16.30
2023-01-26T21:37:49.960Z,16.43
2023-01-26T21:42:54.248Z,15.50
2023-01-26T21:48:14.367Z,13.90
2023-01-26T21:53:17.304Z,14.97
2023-01-26T21:58:38.833Z,16.40
2023-01-26T22:03:41.858Z,16.93
2023-01-26T22:08:44.923Z,15.50
2023-01-26T22:13:49.416Z,14.40
2023-01-26T22:18:52.348Z,14.50
2023-01-26T22:23:55.880Z,13.80
2023-01-26T22:29:00.497Z,13.77
2023-01-26T22:34:04.229Z,14.10
2023-01-26T22:39:07.229Z,16.10
2023-01-26T22:44:11.703Z,14.00
2023-01-26T22:49:14.633Z,13.33
2023-01-26T22:54:17.668Z,13.33
2023-01-26T22:59:22.001Z,13.83
2023-01-26T23:04:25.200Z,15.33
2023-01-26T23:09:28.149Z,14.87
2023-01-26T23:14:38.902Z,13.70
2023-01-26T23:19:41.802Z,14.20
2023-01-26T23:25:04.896Z,14.53
2023-01-26T23:30:10.920Z,13.63
2023-01-26T23:35:14.350Z,13.60
2023-01-26T23:40:17.504Z,14.23
2023-01-26T23:45:21.902Z,13.70
2023-01-26T23:50:24.956Z,12.10
2023-01-26T23:55:28.140Z,11.47
